createdAt,value
2023-01-11T00:01:05.773Z,1.00
2023-01-11T00:03:33.125Z,1.00
2023-01-11T00:06:00.460Z,1.00
2023-01-11T00:08:27.873Z,1.00
2023-01-11T00:10:55.108Z,1.00
2023-01-11T00:13:22.181Z,1.00
2023-01-11T00:15:49.075Z,1.00
2023-01-11T00:18:16.024Z,1.00
2023-01-11T00:20:42.973Z,1.00
2023-01-11T00:23:10.313Z,1.00
2023-01-11T00:25:37.499Z,1.00
2023-01-11T00:28:05.095Z,1.00
2023-01-11T00:30:32.316Z,1.00
2023-01-11T00:33:00.638Z,1.00
2023-01-11T00:35:30.176Z,1.00
2023-01-11T00:37:57.226Z,1.00
2023-01-11T00:40:24.452Z,1.00
2023-01-11T00:43:09.957Z,1.00
2023-01-11T00:45:55.306Z,1.00
2023-01-11T00:48:22.376Z,1.00
2023-01-11T00:50:49.367Z,1.00
2023-01-11T00:53:18.322Z,1.00
2023-01-11T00:55:45.216Z,1.00
2023-01-11T00:58:12.118Z,1.00
2023-01-11T01:00:39.099Z,1.00
2023-01-11T01:03:05.984Z,1.00
2023-01-11T01:05:33.520Z,1.00
2023-01-11T01:08:02.842Z,1.00
2023-01-11T01:10:29.716Z,1.00
2023-01-11T01:13:15.141Z,1.00
2023-01-11T01:15:43.033Z,1.00
2023-01-11T01:18:10.067Z,1.00
2023-01-11T01:20:36.940Z,1.00
2023-01-11T01:23:03.901Z,1.00
2023-01-11T01:25:30.845Z,1.00
2023-01-11T01:27:57.709Z,1.00
2023-01-11T01:30:24.593Z,1.00
2023-01-11T01:32:51.536Z,1.00
2023-01-11T01:35:18.508Z,1.00
2023-01-11T01:37:45.418Z,1.00
2023-01-11T01:40:12.799Z,1.00
2023-01-11T01:42:39.776Z,1.00
2023-01-11T01:45:24.664Z,1.00
2023-01-11T01:48:19.395Z,1.00
2023-01-11T01:50:53.949Z,1.00
2023-01-11T01:53:23.326Z,1.00
2023-01-11T01:55:53.337Z,1.00
2023-01-11T01:58:23.768Z,1.00
2023-01-11T02:00:52.207Z,1.00
2023-01-11T02:03:24.067Z,1.00
2023-01-11T02:05:52.293Z,1.00
2023-01-11T02:08:34.451Z,1.00
2023-01-11T02:11:04.039Z,1.00
2023-01-11T02:13:45.954Z,1.00
2023-01-11T02:16:13.074Z,1.00
2023-01-11T02:18:40.013Z,1.00
2023-01-11T02:21:20.261Z,1.00
2023-01-11T02:23:59.146Z,1.00
2023-01-11T02:26:37.092Z,1.00
2023-01-11T02:29:09.836Z,1.00
2023-01-11T02:32:00.023Z,1.00
2023-01-11T02:34:39.048Z,1.00
2023-01-11T02:37:27.738Z,1.00
2023-01-11T02:40:07.603Z,1.00
2023-01-11T02:43:00.659Z,1.00
2023-01-11T02:45:33.599Z,1.00
2023-01-11T02:48:31.078Z,1.00
2023-01-11T02:51:02.329Z,1.00
2023-01-11T02:53:47.608Z,1.00
2023-01-11T02:56:22.107Z,1.00
2023-01-11T02:58:53.026Z,1.00
2023-01-11T03:01:23.471Z,1.00
2023-01-11T03:03:51.232Z,1.00
2023-01-11T03:06:22.452Z,1.00
2023-01-11T03:09:01.374Z,1.00
2023-01-11T03:11:55.855Z,1.00
2023-01-11T03:14:37.747Z,1.00
2023-01-11T03:17:25.495Z,1.00
2023-01-11T03:19:55.787Z,1.00
2023-01-11T03:22:22.588Z,8.00
2023-01-11T03:25:00.866Z,13.20
2023-01-11T03:28:01.261Z,27.90
2023-01-11T03:30:40.877Z,28.00
2023-01-11T03:33:26.539Z,39.30
2023-01-11T03:36:13.259Z,51.10
2023-01-11T03:38:51.344Z,56.90
2023-01-11T03:41:25.566Z,67.20
2023-01-11T03:43:54.329Z,67.70
2023-01-11T03:46:39.616Z,72.70
2023-01-11T03:49:18.655Z,72.90
2023-01-11T03:51:47.868Z,72.90
2023-01-11T03:54:19.005Z,72.90
2023-01-11T03:57:10.880Z,72.90
2023-01-11T03:59:39.771Z,72.90
2023-01-11T04:02:18.966Z,73.00
2023-01-11T04:04:46.571Z,73.00
2023-01-11T04:07:13.897Z,70.40
2023-01-11T04:09:40.953Z,78.90
2023-01-11T04:12:08.294Z,88.00
2023-01-11T04:14:35.220Z,90.10
2023-01-11T04:17:02.190Z,91.30
2023-01-11T04:19:29.276Z,93.00
2023-01-11T04:21:56.259Z,91.20
2023-01-11T04:24:23.416Z,91.30
2023-01-11T04:26:50.349Z,88.10
2023-01-11T04:29:17.199Z,83.20
2023-01-11T04:31:44.078Z,80.50
2023-01-11T04:34:12.373Z,83.20
2023-01-11T04:36:39.251Z,78.30
2023-01-11T04:39:06.591Z,78.40
2023-01-11T04:41:51.960Z,73.10
2023-01-11T04:44:18.853Z,73.20
2023-01-11T04:46:45.808Z,77.70
2023-01-11T04:49:12.771Z,78.30
2023-01-11T04:51:39.888Z,76.60
2023-01-11T04:54:06.930Z,80.10
2023-01-11T04:56:34.094Z,83.30
2023-01-11T04:59:00.984Z,87.60
2023-01-11T05:01:28.142Z,91.40
2023-01-11T05:03:55.674Z,90.30
2023-01-11T05:06:22.782Z,85.10
2023-01-11T05:08:49.761Z,83.50
2023-01-11T05:11:17.719Z,78.80
2023-01-11T05:13:45.299Z,73.40
2023-01-11T05:16:15.231Z,73.40
2023-01-11T05:18:47.975Z,73.40
2023-01-11T05:21:17.352Z,73.50
2023-01-11T05:23:44.581Z,73.50
2023-01-11T05:26:14.851Z,64.40
2023-01-11T05:28:41.701Z,63.00
2023-01-11T05:31:08.558Z,73.40
2023-01-11T05:33:35.585Z,68.60
2023-01-11T05:36:05.522Z,73.50
2023-01-11T05:38:32.838Z,68.30
2023-01-11T05:41:02.088Z,73.50
2023-01-11T05:43:30.089Z,70.70
2023-01-11T05:45:58.237Z,73.50
2023-01-11T05:48:25.876Z,73.60
2023-01-11T05:50:56.337Z,74.80
2023-01-11T05:53:24.298Z,73.80
2023-01-11T05:55:55.959Z,73.60
2023-01-11T05:58:24.645Z,73.70
2023-01-11T06:00:53.960Z,73.50
2023-01-11T06:03:22.356Z,70.20
2023-01-11T06:05:49.431Z,73.70
2023-01-11T06:08:16.594Z,73.60
2023-01-11T06:10:43.608Z,63.20
2023-01-11T06:13:28.576Z,68.70
2023-01-11T06:16:00.481Z,70.60
2023-01-11T06:18:29.330Z,78.90
2023-01-11T06:20:57.357Z,77.20
2023-01-11T06:23:25.542Z,88.80
2023-01-11T06:25:52.632Z,83.80
2023-01-11T06:28:19.604Z,78.80
2023-01-11T06:30:53.992Z,83.70
2023-01-11T06:33:23.344Z,88.80
2023-01-11T06:35:50.846Z,83.90
2023-01-11T06:38:19.756Z,90.60
2023-01-11T06:40:56.665Z,91.50
2023-01-11T06:43:25.161Z,95.90
2023-01-11T06:45:52.445Z,95.90
2023-01-11T06:48:21.043Z,94.50
2023-01-11T06:50:49.596Z,99.90
2023-01-11T06:53:16.950Z,99.90
2023-01-11T06:55:44.440Z,99.90
2023-01-11T06:58:11.429Z,99.90
2023-01-11T07:00:38.859Z,99.90
2023-01-11T07:03:06.860Z,99.90
2023-01-11T07:05:35.289Z,99.80
2023-01-11T07:08:02.991Z,99.90
2023-01-11T07:10:30.271Z,99.90
2023-01-11T07:12:57.389Z,99.90
2023-01-11T07:15:24.305Z,99.90
2023-01-11T07:18:00.665Z,99.90
2023-01-11T07:20:28.393Z,99.90
2023-01-11T07:23:00.352Z,99.90
2023-01-11T07:25:28.405Z,99.90
2023-01-11T07:28:04.287Z,99.90
2023-01-11T07:30:37.463Z,99.90
2023-01-11T07:33:10.720Z,99.90
2023-01-11T07:35:37.768Z,99.90
2023-01-11T07:38:07.752Z,99.90
2023-01-11T07:40:36.436Z,99.90
2023-01-11T07:43:14.646Z,99.90
2023-01-11T07:45:46.387Z,99.90
2023-01-11T07:48:16.086Z,99.90
2023-01-11T07:50:45.036Z,99.90
2023-01-11T07:53:13.304Z,99.90
2023-01-11T07:55:41.080Z,99.90
2023-01-11T07:58:17.049Z,99.90
2023-01-11T08:00:46.154Z,99.90
2023-01-11T08:03:13.502Z,99.90
2023-01-11T08:05:40.909Z,99.90
2023-01-11T08:08:08.177Z,99.90
2023-01-11T08:10:35.236Z,99.90
2023-01-11T08:13:20.767Z,99.90
2023-01-11T08:15:50.524Z,99.90
2023-01-11T08:18:17.557Z,99.90
2023-01-11T08:20:45.754Z,99.90
2023-01-11T08:23:12.870Z,99.90
2023-01-11T08:25:39.884Z,99.90
2023-01-11T08:28:07.905Z,99.90
2023-01-11T08:30:37.729Z,99.90
2023-01-11T08:33:05.608Z,99.90
2023-01-11T08:35:38.177Z,99.90
2023-01-11T08:38:05.469Z,99.90
2023-01-11T08:40:32.356Z,99.90
2023-01-11T08:42:59.380Z,99.90
2023-01-11T08:45:26.484Z,99.90
2023-01-11T08:47:54.026Z,99.90
2023-01-11T08:50:22.614Z,99.90
2023-01-11T08:52:51.242Z,99.90
2023-01-11T08:55:19.529Z,99.90
2023-01-11T08:57:46.799Z,99.90
2023-01-11T09:00:14.543Z,99.90
2023-01-11T09:02:41.634Z,99.90
2023-01-11T09:05:09.188Z,99.90
2023-01-11T09:07:36.131Z,99.90
2023-01-11T09:10:07.986Z,99.90
2023-01-11T09:12:35.364Z,99.90
2023-01-11T09:15:02.521Z,99.90
2023-01-11T09:17:29.502Z,99.90
2023-01-11T09:19:56.432Z,99.90
2023-01-11T09:22:23.695Z,99.90
2023-01-11T09:24:50.614Z,99.90
2023-01-11T09:27:17.661Z,97.80
2023-01-11T09:29:44.701Z,96.80
2023-01-11T09:32:12.114Z,92.90
2023-01-11T09:34:39.377Z,82.40
2023-01-11T09:37:09.074Z,59.30
2023-01-11T09:39:37.147Z,47.70
2023-01-11T09:42:07.527Z,18.30
2023-01-11T09:44:49.825Z,7.20
2023-01-11T09:47:40.887Z,1.00
2023-01-11T09:50:21.970Z,1.00
2023-01-11T09:52:56.342Z,1.00
2023-01-11T09:55:33.024Z,1.00
2023-01-11T09:58:12.060Z,1.00
2023-01-11T10:00:51.156Z,1.00
2023-01-11T10:03:30.489Z,1.00
2023-01-11T10:06:23.113Z,1.00
2023-01-11T10:18:31.571Z,1.00
2023-01-11T10:19:31.484Z,1.00
2023-01-11T10:22:06.776Z,1.00
2023-01-11T10:24:46.351Z,1.00
2023-01-11T10:27:25.489Z,1.00
2023-01-11T10:30:09.886Z,1.00
2023-01-11T10:32:56.554Z,1.00
2023-01-11T10:35:58.977Z,1.00
2023-01-11T10:38:49.540Z,1.00
2023-01-11T10:41:46.685Z,1.00
2023-01-11T10:44:22.501Z,1.00
2023-01-11T10:46:53.250Z,1.00
2023-01-11T10:49:34.524Z,1.00
2023-01-11T10:52:24.745Z,1.00
2023-01-11T10:54:55.933Z,1.00
2023-01-11T10:57:33.833Z,1.00
2023-01-11T11:00:18.907Z,1.00
2023-01-11T11:03:07.009Z,1.00
2023-01-11T11:06:01.015Z,1.00
2023-01-11T11:08:35.658Z,1.00
2023-01-11T11:11:09.835Z,1.00
2023-01-11T11:13:52.129Z,1.00
2023-01-11T11:16:21.775Z,1.00
2023-01-11T11:18:54.348Z,1.00
2023-01-11T11:21:31.701Z,1.00
2023-01-11T11:24:32.387Z,1.00
2023-01-11T11:27:18.721Z,1.00
2023-01-11T11:29:52.095Z,1.00
2023-01-11T11:32:33.145Z,1.00
2023-01-11T11:35:00.959Z,1.00
2023-01-11T11:37:44.334Z,1.00
2023-01-11T11:40:31.417Z,1.00
2023-01-11T11:43:23.062Z,1.00
2023-01-11T11:45:51.863Z,1.00
2023-01-11T11:48:19.073Z,1.00
2023-01-11T11:50:49.413Z,1.00
2023-01-11T11:53:53.192Z,1.00
2023-01-11T11:56:32.847Z,1.00
2023-01-11T11:59:06.157Z,1.00
2023-01-11T12:01:46.818Z,1.00
2023-01-11T12:04:17.162Z,1.00
2023-01-11T12:06:46.467Z,1.00
2023-01-11T12:09:34.753Z,1.00
2023-01-11T12:12:02.751Z,1.00
2023-01-11T12:14:35.319Z,1.00
2023-01-11T12:17:24.665Z,1.00
2023-01-11T12:19:51.715Z,1.00
2023-01-11T12:22:24.368Z,1.00
2023-01-11T12:25:25.374Z,1.00
2023-01-11T12:28:06.299Z,1.00
2023-01-11T12:30:42.143Z,1.00
2023-01-11T12:33:24.727Z,1.00
2023-01-11T12:36:08.087Z,1.00
2023-01-11T12:39:08.112Z,1.00
2023-01-11T12:42:10.895Z,1.00
2023-01-11T12:45:05.643Z,1.00
2023-01-11T12:48:30.995Z,1.00
2023-01-11T12:50:57.885Z,1.00
2023-01-11T12:53:34.988Z,1.00
2023-01-11T12:56:34.040Z,1.00
2023-01-11T12:59:06.905Z,1.00
2023-01-11T13:01:43.965Z,1.00
2023-01-11T13:04:31.240Z,1.00
2023-01-11T13:07:07.588Z,1.00
2023-01-11T13:10:02.443Z,1.00
2023-01-11T13:12:58.973Z,1.00
2023-01-11T13:15:45.725Z,1.00
2023-01-11T13:18:38.571Z,1.00
2023-01-11T13:21:20.508Z,1.00
2023-01-11T13:23:57.715Z,1.00
2023-01-11T13:26:35.857Z,1.00
2023-01-11T13:29:06.571Z,1.00
2023-01-11T13:31:35.806Z,1.00
2023-01-11T13:34:23.726Z,1.00
2023-01-11T13:37:14.159Z,1.00
2023-01-11T13:39:48.246Z,1.00
2023-01-11T13:42:21.625Z,1.00
2023-01-11T13:45:21.264Z,1.00
2023-01-11T13:47:52.131Z,1.00
2023-01-11T13:50:38.379Z,99.90
2023-01-11T13:53:21.437Z,99.90
2023-01-11T13:56:02.921Z,99.90
2023-01-11T13:58:56.897Z,99.90
2023-01-11T14:01:49.057Z,99.90
2023-01-11T14:04:52.901Z,99.90
2023-01-11T14:07:52.935Z,99.90
2023-01-11T14:10:24.384Z,99.90
2023-01-11T14:13:36.098Z,99.90
2023-01-11T14:16:14.298Z,99.90
2023-01-11T14:18:52.311Z,99.90
2023-01-11T14:21:40.408Z,99.90
2023-01-11T14:24:08.965Z,99.90
2023-01-11T14:26:47.843Z,99.90
2023-01-11T14:29:38.872Z,99.90
2023-01-11T14:32:33.479Z,99.90
2023-01-11T14:35:25.957Z,99.90
2023-01-11T14:38:12.789Z,99.90
2023-01-11T14:41:17.480Z,99.90
2023-01-11T14:43:57.213Z,99.90
2023-01-11T14:46:47.370Z,99.90
2023-01-11T14:49:39.139Z,99.90
2023-01-11T14:52:39.708Z,99.90
2023-01-11T14:55:20.368Z,99.90
2023-01-11T14:58:10.316Z,99.90
2023-01-11T15:00:43.734Z,99.90
2023-01-11T15:03:10.665Z,99.90
2023-01-11T15:05:55.599Z,99.90
2023-01-11T15:08:28.274Z,99.90
2023-01-11T15:11:33.361Z,99.90
2023-01-11T15:14:23.353Z,99.90
2023-01-11T15:17:12.443Z,99.90
2023-01-11T15:19:42.353Z,99.90
2023-01-11T15:22:30.154Z,99.90
2023-01-11T15:25:01.107Z,99.90
2023-01-11T15:27:33.741Z,99.90
2023-01-11T15:30:01.026Z,99.90
2023-01-11T15:32:29.426Z,99.90
2023-01-11T15:35:31.809Z,99.90
2023-01-11T15:38:22.655Z,99.90
2023-01-11T15:40:51.448Z,99.90
2023-01-11T15:44:03.077Z,99.90
2023-01-11T15:46:58.007Z,99.90
2023-01-11T15:49:40.010Z,99.90
2023-01-11T15:52:31.974Z,99.90
2023-01-11T15:55:49.244Z,99.90
2023-01-11T15:58:34.261Z,99.90
2023-01-11T16:01:23.256Z,99.90
2023-01-11T16:04:21.312Z,99.90
2023-01-11T16:07:17.647Z,99.90
2023-01-11T16:09:44.566Z,99.90
2023-01-11T16:12:43.337Z,99.90
2023-01-11T16:15:22.938Z,99.90
2023-01-11T16:17:50.688Z,99.90
2023-01-11T16:20:20.700Z,99.90
2023-01-11T16:23:05.733Z,99.90
2023-01-11T16:25:37.611Z,99.90
2023-01-11T16:28:06.087Z,99.90
2023-01-11T16:30:34.207Z,99.90
2023-01-11T16:33:25.465Z,99.90
2023-01-11T16:36:21.156Z,99.90
2023-01-11T16:39:06.005Z,99.90
2023-01-11T16:41:44.263Z,99.90
2023-01-11T16:44:55.825Z,99.90
2023-01-11T16:47:25.752Z,99.90
2023-01-11T16:50:14.505Z,99.90
2023-01-11T16:52:49.863Z,99.90
2023-01-11T16:55:18.551Z,99.90
2023-01-11T16:57:51.495Z,99.90
2023-01-11T17:00:22.264Z,99.90
2023-01-11T17:03:00.306Z,99.90
2023-01-11T17:05:28.402Z,99.90
2023-01-11T17:07:55.370Z,99.90
2023-01-11T17:10:29.253Z,99.90
2023-01-11T17:13:37.887Z,99.90
2023-01-11T17:16:15.015Z,99.90
2023-01-11T17:18:43.641Z,99.90
2023-01-11T17:21:30.503Z,99.90
2023-01-11T17:24:08.358Z,99.90
2023-01-11T17:26:45.220Z,99.90
2023-01-11T17:29:18.344Z,99.90
2023-01-11T17:31:45.433Z,99.90
2023-01-11T17:34:32.394Z,99.90
2023-01-11T17:37:00.603Z,99.90
2023-01-11T17:39:37.012Z,99.90
2023-01-11T17:42:27.025Z,99.90
2023-01-11T17:45:19.879Z,99.90
2023-01-11T17:47:53.022Z,99.90
2023-01-11T17:50:31.861Z,99.90
2023-01-11T17:53:24.176Z,99.90
2023-01-11T17:55:52.925Z,99.90
2023-01-11T17:58:26.697Z,99.90
2023-01-11T18:01:24.067Z,99.90
2023-01-11T18:03:58.551Z,99.90
2023-01-11T18:06:31.298Z,99.90
2023-01-11T18:09:01.167Z,99.90
2023-01-11T18:11:39.834Z,99.90
2023-01-11T18:14:17.400Z,99.90
2023-01-11T18:17:03.715Z,99.90
2023-01-11T18:19:51.069Z,99.90
2023-01-11T18:22:40.618Z,99.90
2023-01-11T18:25:35.101Z,99.90
2023-01-11T18:28:25.902Z,99.90
2023-01-11T18:30:56.595Z,99.90
2023-01-11T18:33:26.672Z,99.90
2023-01-11T18:35:58.684Z,99.90
2023-01-11T18:38:36.072Z,99.90
2023-01-11T18:41:28.171Z,99.90
2023-01-11T18:43:55.830Z,99.90
2023-01-11T18:46:23.008Z,99.90
2023-01-11T18:48:51.078Z,99.90
2023-01-11T18:51:41.725Z,99.90
2023-01-11T18:54:16.419Z,99.90
2023-01-11T18:56:43.534Z,99.90
2023-01-11T18:59:12.661Z,99.90
2023-01-11T19:01:56.162Z,99.90
2023-01-11T19:04:25.842Z,99.90
2023-01-11T19:06:53.099Z,99.90
2023-01-11T19:09:19.986Z,99.90
2023-01-11T19:11:46.967Z,99.90
2023-01-11T19:14:14.256Z,99.90
2023-01-11T19:16:41.121Z,99.90
2023-01-11T19:19:08.163Z,99.90
2023-01-11T19:21:35.067Z,99.90
2023-01-11T19:24:02.261Z,99.90
2023-01-11T19:26:29.521Z,99.90
2023-01-11T19:28:58.743Z,99.90
2023-01-11T19:31:25.703Z,99.90
2023-01-11T19:33:52.609Z,99.90
2023-01-11T19:36:19.596Z,99.90
2023-01-11T19:38:46.465Z,99.90
2023-01-11T19:41:15.625Z,99.90
2023-01-11T19:43:47.216Z,99.90
2023-01-11T19:46:19.603Z,99.90
2023-01-11T19:48:49.536Z,99.90
2023-01-11T19:51:16.509Z,99.90
2023-01-11T19:53:43.361Z,99.90
2023-01-11T19:56:10.348Z,99.90
2023-01-11T19:58:38.242Z,99.90
2023-01-11T20:01:10.892Z,99.90
2023-01-11T20:03:40.952Z,99.90
2023-01-11T20:06:09.200Z,99.90
2023-01-11T20:08:38.735Z,99.90
2023-01-11T20:11:15.904Z,99.90
2023-01-11T20:13:50.573Z,99.90
2023-01-11T20:16:20.112Z,99.90
2023-01-11T20:18:57.412Z,99.90
2023-01-11T20:21:27.321Z,99.90
2023-01-11T20:23:57.652Z,99.90
2023-01-11T20:26:25.906Z,99.90
2023-01-11T20:28:59.172Z,99.90
2023-01-11T20:31:28.326Z,99.90
2023-01-11T20:34:00.387Z,99.90
2023-01-11T20:36:41.459Z,99.90
2023-01-11T20:39:09.527Z,99.90
2023-01-11T20:41:49.320Z,99.90
2023-01-11T20:44:32.491Z,99.90
2023-01-11T20:47:08.869Z,99.90
2023-01-11T20:49:36.107Z,99.90
2023-01-11T20:52:03.211Z,99.90
2023-01-11T20:54:30.350Z,99.90
2023-01-11T20:57:02.256Z,99.90
2023-01-11T20:59:32.360Z,99.90
2023-01-11T21:02:01.487Z,99.90
2023-01-11T21:04:34.011Z,99.90
2023-01-11T21:07:00.913Z,99.90
2023-01-11T21:09:27.854Z,99.90
2023-01-11T21:11:54.889Z,99.90
2023-01-11T21:14:22.702Z,99.90
2023-01-11T21:16:49.709Z,99.90
2023-01-11T21:19:16.756Z,99.90
2023-01-11T21:21:43.818Z,99.90
2023-01-11T21:24:13.536Z,99.90
2023-01-11T21:26:44.800Z,99.90
2023-01-11T21:29:14.569Z,99.90
2023-01-11T21:31:42.112Z,99.90
2023-01-11T21:34:12.014Z,99.90
2023-01-11T21:36:39.040Z,99.90
2023-01-11T21:39:06.134Z,99.90
2023-01-11T21:41:52.452Z,99.90
2023-01-11T21:44:20.730Z,99.90
2023-01-11T21:46:48.057Z,99.90
2023-01-11T21:49:17.122Z,99.90
2023-01-11T21:51:44.175Z,99.90
2023-01-11T21:54:14.057Z,99.90
2023-01-11T21:56:43.848Z,99.90
2023-01-11T21:59:11.159Z,99.90
2023-01-11T22:01:40.559Z,99.90
2023-01-11T22:04:09.764Z,99.90
2023-01-11T22:06:42.231Z,99.90
2023-01-11T22:09:11.271Z,99.90
2023-01-11T22:11:39.109Z,99.90
2023-01-11T22:14:06.678Z,99.90
2023-01-11T22:16:37.511Z,99.90
2023-01-11T22:19:07.358Z,99.90
2023-01-11T22:21:36.227Z,99.90
2023-01-11T22:24:09.522Z,99.90
2023-01-11T22:26:38.853Z,99.90
2023-01-11T22:29:12.885Z,99.90
2023-01-11T22:31:42.611Z,99.90
2023-01-11T22:34:10.960Z,99.90
2023-01-11T22:36:38.144Z,99.90
2023-01-11T22:39:05.298Z,99.90
2023-01-11T22:41:32.902Z,99.90
2023-01-11T22:43:59.789Z,99.90
2023-01-11T22:46:28.821Z,99.90
2023-01-11T22:48:56.279Z,99.90
2023-01-11T22:51:25.688Z,99.90
2023-01-11T22:53:54.123Z,99.90
2023-01-11T22:56:24.846Z,99.90
2023-01-11T22:58:55.281Z,99.90
2023-01-11T23:01:27.084Z,99.90
2023-01-11T23:03:55.143Z,99.90
2023-01-11T23:06:27.994Z,99.90
2023-01-11T23:08:55.566Z,99.90
2023-01-11T23:11:47.035Z,99.90
2023-01-11T23:14:16.448Z,99.90
2023-01-11T23:16:45.068Z,99.90
2023-01-11T23:19:16.821Z,99.90
2023-01-11T23:21:45.485Z,99.90
2023-01-11T23:24:13.599Z,99.90
2023-01-11T23:26:40.831Z,99.90
2023-01-11T23:29:08.399Z,99.90
2023-01-11T23:31:35.494Z,99.90
2023-01-11T23:34:03.402Z,99.90
2023-01-11T23:36:35.934Z,99.90
2023-01-11T23:39:03.506Z,99.90
2023-01-11T23:41:48.946Z,99.90
2023-01-11T23:44:17.161Z,99.90
2023-01-11T23:47:03.646Z,99.90
2023-01-11T23:49:33.064Z,99.90
2023-01-11T23:52:00.914Z,99.90
2023-01-11T23:54:33.136Z,99.90
2023-01-11T23:57:02.510Z,99.90
2023-01-11T23:59:29.727Z,99.90
